Time;durP1;ratioP1;P1;durP2;ratioP2;P2;SDS_P1;SDS_P2;PMS_P1;PMS_P2;Temp;Humidity;BMP_temperature;BMP_pressure;BME280_temperature;BME280_humidity;BME280_pressure;Samples;Min_cycle;Max_cycle;Signal;HPM_P1;HPM_P2
2023/04/24 00:00:20;;;;;;;20.00;11.90;;;;;;;12.51;71.80;99258.75;129540;1281;114748;-61
2023/04/24 00:03:42;;;;;;;17.50;12.00;;;;;;;12.53;71.81;99256.34;129413;1262;114699;-62
2023/04/24 00:06:49;;;;;;;17.90;12.70;;;;;;;12.54;71.84;99255.89;129485;1261;114715;-61
2023/04/24 00:09:51;;;;;;;14.60;11.90;;;;;;;12.55;71.88;99252.58;129310;1259;114770;-62
2023/04/24 00:12:53;;;;;;;14.70;11.80;;;;;;;12.57;71.92;99245.77;129548;1262;114745;-59
2023/04/24 00:15:56;;;;;;;18.30;12.60;;;;;;;12.59;71.97;99242.06;129617;1262;114652;-60
2023/04/24 00:18:58;;;;;;;19.60;13.60;;;;;;;12.61;72.19;99239.55;129175;1281;127906;-59
2023/04/24 00:22:00;;;;;;;18.50;13.40;;;;;;;12.63;72.19;99232.66;129394;1264;114699;-61
2023/04/24 00:25:03;;;;;;;17.80;13.80;;;;;;;12.65;71.94;99231.39;129534;1271;115015;-61
2023/04/24 00:28:05;;;;;;;20.00;14.00;;;;;;;12.67;72.43;99229.10;129739;1259;115095;-61
2023/04/24 00:31:08;;;;;;;22.70;14.70;;;;;;;12.70;72.43;99219.62;129586;1261;115423;-60
2023/04/24 00:34:11;;;;;;;18.70;14.50;;;;;;;12.71;72.22;99218.60;129525;1262;114642;-61
2023/04/24 00:37:13;;;;;;;17.80;13.70;;;;;;;12.73;72.29;99216.30;129785;1281;114763;-61
2023/04/24 00:40:15;;;;;;;22.80;14.30;;;;;;;12.74;72.39;99209.77;129836;1260;114754;-61
2023/04/24 00:43:18;;;;;;;18.30;13.20;;;;;;;12.75;72.39;99209.12;129427;1264;115288;-59
2023/04/24 00:46:21;;;;;;;18.80;13.50;;;;;;;12.77;72.40;99207.95;129407;1266;114726;-60
2023/04/24 00:49:23;;;;;;;20.40;14.50;;;;;;;12.78;72.60;99204.67;129488;1262;114723;-61
2023/04/24 00:52:26;;;;;;;18.80;14.40;;;;;;;12.80;72.54;99202.88;129506;1261;114829;-61
2023/04/24 00:55:29;;;;;;;19.10;13.80;;;;;;;12.82;72.41;99202.73;129515;1273;114768;-61
2023/04/24 00:58:31;;;;;;;20.50;14.70;;;;;;;12.83;72.31;99204.80;129676;1281;114729;-61
2023/04/24 01:01:33;;;;;;;18.70;14.00;;;;;;;12.85;72.43;99206.43;129831;1262;114731;-61
2023/04/24 01:04:37;;;;;;;23.10;15.10;;;;;;;12.86;72.47;99206.88;129543;1271;115138;-61
2023/04/24 01:07:43;;;;;;;18.50;14.30;;;;;;;12.87;72.49;99204.83;129548;1261;114812;-61
2023/04/24 01:10:47;;;;;;;18.90;14.70;;;;;;;12.89;72.33;99203.60;129457;1262;114773;-62
2023/04/24 01:13:49;;;;;;;19.70;14.20;;;;;;;12.90;72.51;99201.21;129312;1259;114842;-61
2023/04/24 01:16:52;;;;;;;22.20;15.50;;;;;;;12.91;72.51;99197.41;129499;1271;115185;-60
2023/04/24 01:19:56;;;;;;;20.80;15.10;;;;;;;12.90;72.26;99195.86;129572;1262;114756;-60
2023/04/24 01:22:58;;;;;;;20.90;15.00;;;;;;;12.89;72.37;99198.02;129375;1261;568186;-61
2023/04/24 01:26:01;;;;;;;24.80;16.10;;;;;;;12.89;72.65;99195.36;129556;1265;114742;-60
2023/04/24 01:29:03;;;;;;;19.40;15.40;;;;;;;12.89;72.62;99196.11;129661;1264;114738;-59
2023/04/24 01:32:06;;;;;;;19.20;15.70;;;;;;;12.87;72.74;99194.79;129411;1265;114889;-60
2023/04/24 01:35:08;;;;;;;20.40;16.30;;;;;;;12.86;72.78;99191.10;129566;1271;114782;-60
2023/04/24 01:38:11;;;;;;;21.60;16.10;;;;;;;12.85;72.75;99186.73;129878;1263;114805;-61
2023/04/24 01:41:13;;;;;;;19.90;16.20;;;;;;;12.82;73.00;99182.98;129682;1281;114647;-61
2023/04/24 01:44:16;;;;;;;23.70;16.30;;;;;;;12.82;73.03;99181.77;129506;1262;114759;-61
2023/04/24 01:47:18;;;;;;;22.70;16.70;;;;;;;12.82;72.97;99178.39;129586;1281;114712;-59
2023/04/24 01:50:21;;;;;;;24.80;16.90;;;;;;;12.82;72.90;99176.75;129504;1267;115393;-61
2023/04/24 01:53:23;;;;;;;20.20;16.50;;;;;;;12.83;72.97;99179.02;129784;1261;114795;-59
2023/04/24 01:56:25;;;;;;;22.80;17.40;;;;;;;12.83;73.06;99174.38;129566;1281;129274;-58
2023/04/24 01:59:28;;;;;;;23.30;17.70;;;;;;;12.82;72.89;99172.45;129520;1263;114792;-59
2023/04/24 02:02:30;;;;;;;23.40;17.40;;;;;;;12.82;73.22;99173.92;129775;1259;114729;-59
2023/04/24 02:05:32;;;;;;;20.90;16.80;;;;;;;12.82;73.25;99172.30;129783;1261;114724;-61
2023/04/24 02:08:35;;;;;;;23.20;16.80;;;;;;;12.82;72.96;99173.52;130661;1256;114735;-61
2023/04/24 02:11:37;;;;;;;26.10;17.50;;;;;;;12.82;72.92;99171.73;129952;1271;114780;-61
2023/04/24 02:14:39;;;;;;;25.00;18.50;;;;;;;12.82;73.11;99172.25;129567;1273;114769;-61
2023/04/24 02:17:41;;;;;;;25.00;17.60;;;;;;;12.83;73.04;99169.67;129726;1280;128787;-61
2023/04/24 02:20:44;;;;;;;22.40;17.00;;;;;;;12.83;73.15;99167.38;129685;1258;114795;-60
2023/04/24 02:23:47;;;;;;;22.20;17.60;;;;;;;12.83;73.05;99165.73;129919;1263;114785;-60
2023/04/24 02:26:49;;;;;;;22.50;17.30;;;;;;;12.83;73.18;99165.70;129456;1272;115297;-60
2023/04/24 02:29:51;;;;;;;21.30;16.70;;;;;;;12.84;73.30;99163.86;129514;1271;114782;-60
2023/04/24 02:32:53;;;;;;;22.10;17.80;;;;;;;12.83;73.18;99157.27;129530;1271;114778;-60
2023/04/24 02:35:56;;;;;;;21.10;17.70;;;;;;;12.82;73.34;99155.39;129675;1281;114808;-60
2023/04/24 02:38:59;;;;;;;22.20;17.70;;;;;;;12.80;73.49;99151.80;129486;1264;114717;-60
2023/04/24 02:42:02;;;;;;;22.10;19.00;;;;;;;12.78;73.41;99145.34;129430;1281;115169;-60
2023/04/24 02:45:05;;;;;;;23.70;18.80;;;;;;;12.77;73.51;99140.94;129433;1263;115308;-60
2023/04/24 02:48:10;;;;;;;24.60;18.70;;;;;;;12.77;73.44;99130.52;129471;1261;114679;-60
2023/04/24 02:51:12;;;;;;;29.30;20.00;;;;;;;12.76;73.40;99125.08;129295;1267;114969;-60
2023/04/24 02:54:15;;;;;;;25.90;19.80;;;;;;;12.75;73.44;99124.02;129407;1272;114810;-59
2023/04/24 02:57:18;;;;;;;23.60;19.60;;;;;;;12.74;73.67;99117.48;129764;1281;114727;-60
2023/04/24 03:00:20;;;;;;;25.40;19.20;;;;;;;12.72;73.67;99117.30;129866;1258;115160;-59
2023/04/24 03:03:23;;;;;;;25.20;18.80;;;;;;;12.69;73.53;99119.13;129461;1263;114775;-59
2023/04/24 03:06:26;;;;;;;22.10;18.70;;;;;;;12.67;73.70;99111.09;129497;1264;116386;-59
2023/04/24 03:09:29;;;;;;;25.60;19.10;;;;;;;12.65;73.65;99110.48;129611;1263;114782;-60
2023/04/24 03:12:31;;;;;;;23.80;19.50;;;;;;;12.65;73.72;99106.20;129858;1264;114749;-59
2023/04/24 03:15:33;;;;;;;23.00;18.40;;;;;;;12.64;73.70;99105.61;129541;1281;114875;-66
2023/04/24 03:18:35;;;;;;;26.30;19.40;;;;;;;12.63;73.64;99105.09;129433;1265;115274;-61
2023/04/24 03:21:40;;;;;;;27.10;20.00;;;;;;;12.64;74.00;99106.69;129436;1272;114820;-60
2023/04/24 03:24:42;;;;;;;23.00;19.50;;;;;;;12.64;73.92;99112.04;129836;1271;114708;-61
2023/04/24 03:27:44;;;;;;;27.10;20.50;;;;;;;12.64;74.09;99115.98;129816;1257;114851;-62
2023/04/24 03:30:47;;;;;;;23.30;18.80;;;;;;;12.64;74.16;99121.89;129696;1271;114792;-62
2023/04/24 03:33:49;;;;;;;31.20;20.80;;;;;;;12.63;74.13;99122.47;129344;1275;128024;-61
2023/04/24 03:36:52;;;;;;;25.90;19.60;;;;;;;12.65;74.14;99122.02;129520;1258;114768;-61
2023/04/24 03:39:54;;;;;;;25.80;18.70;;;;;;;12.65;74.18;99126.98;129552;1273;115392;-61
2023/04/24 03:42:57;;;;;;;28.40;19.70;;;;;;;12.66;74.33;99130.48;129827;1257;114736;-62
2023/04/24 03:45:59;;;;;;;25.90;19.70;;;;;;;12.66;74.34;99132.52;129486;1264;114703;-63
2023/04/24 03:49:01;;;;;;;25.10;19.50;;;;;;;12.65;74.27;99129.71;129545;1281;114840;-61
2023/04/24 03:52:04;;;;;;;24.40;19.80;;;;;;;12.65;74.41;99131.69;129406;1258;114821;-60
2023/04/24 03:55:07;;;;;;;25.20;18.80;;;;;;;12.63;74.51;99134.47;129471;1261;115467;-62
2023/04/24 03:58:09;;;;;;;29.10;20.10;;;;;;;12.61;74.43;99130.30;130094;1281;114788;-62
2023/04/24 04:01:11;;;;;;;23.70;18.60;;;;;;;12.60;74.50;99134.89;129528;1272;116354;-65
2023/04/24 04:04:14;;;;;;;24.00;19.30;;;;;;;12.59;74.46;99134.39;129558;1263;115399;-65
2023/04/24 04:07:17;;;;;;;26.70;19.30;;;;;;;12.59;74.55;99133.69;129859;1264;114832;-64
2023/04/24 04:10:19;;;;;;;26.90;19.30;;;;;;;12.60;74.39;99137.52;129644;1272;115277;-63
2023/04/24 04:13:22;;;;;;;26.50;19.40;;;;;;;12.59;74.40;99138.34;129485;1272;114729;-65
2023/04/24 04:16:24;;;;;;;28.70;19.90;;;;;;;12.58;74.41;99137.39;129452;1263;114727;-64
2023/04/24 04:19:27;;;;;;;26.10;19.60;;;;;;;12.56;74.27;99136.60;129794;1258;114712;-65
2023/04/24 04:22:29;;;;;;;23.60;18.80;;;;;;;12.54;74.31;99133.17;129528;1273;114814;-68
2023/04/24 04:25:32;;;;;;;26.70;18.50;;;;;;;12.52;74.17;99131.70;129819;1260;115159;-63
2023/04/24 04:28:35;;;;;;;26.90;17.80;;;;;;;12.51;74.19;99131.23;129632;1261;114851;-62
2023/04/24 04:31:37;;;;;;;26.10;17.90;;;;;;;12.52;73.97;99129.59;129652;1257;114699;-64
2023/04/24 04:34:39;;;;;;;26.10;17.60;;;;;;;12.54;73.95;99122.59;129848;1280;114809;-64
2023/04/24 04:37:42;;;;;;;23.10;17.00;;;;;;;12.59;73.46;99125.95;129480;1258;116466;-61
2023/04/24 04:40:45;;;;;;;24.90;16.60;;;;;;;12.67;73.74;99127.05;129411;1261;115173;-66
2023/04/24 04:43:48;;;;;;;24.40;18.20;;;;;;;12.76;73.48;99124.50;129768;1257;114990;-64
2023/04/24 04:46:53;;;;;;;24.40;17.40;;;;;;;12.91;73.63;99122.83;129698;1281;114808;-62
2023/04/24 04:49:55;;;;;;;31.30;18.50;;;;;;;13.21;73.75;99124.05;129471;1264;128820;-62
2023/04/24 04:52:57;;;;;;;22.70;17.00;;;;;;;13.65;73.57;99125.26;129455;1264;114737;-63
2023/04/24 04:56:00;;;;;;;24.30;16.70;;;;;;;13.98;72.93;99125.62;129559;1261;114781;-63
2023/04/24 04:59:03;;;;;;;23.00;16.20;;;;;;;14.26;72.65;99124.70;129747;1276;115275;-63
2023/04/24 05:02:05;;;;;;;36.60;16.80;;;;;;;14.50;71.99;99120.91;129451;1258;115345;-62
2023/04/24 05:05:08;;;;;;;27.00;16.20;;;;;;;14.66;71.54;99126.02;129456;1262;114855;-62
2023/04/24 05:08:11;;;;;;;23.80;16.20;;;;;;;14.82;70.97;99121.87;129643;1273;114665;-62
2023/04/24 05:11:13;;;;;;;20.10;14.90;;;;;;;14.95;70.89;99122.34;129495;1257;114740;-62
2023/04/24 05:14:17;;;;;;;27.80;15.00;;;;;;;15.26;70.37;99126.98;129491;1280;114823;-63
2023/04/24 05:17:20;;;;;;;16.70;13.70;;;;;;;15.65;69.67;99121.92;129546;1261;114757;-62
2023/04/24 05:20:23;;;;;;;22.70;13.30;;;;;;;16.10;69.60;99116.33;129429;1273;114804;-61
2023/04/24 05:23:25;;;;;;;25.20;13.70;;;;;;;16.58;69.29;99121.45;129788;1269;114830;-62
2023/04/24 05:26:27;;;;;;;18.80;13.20;;;;;;;17.01;68.30;99121.02;129769;1264;115342;-63
2023/04/24 05:29:31;;;;;;;19.40;12.60;;;;;;;17.37;67.62;99119.29;129409;1280;128571;-63
2023/04/24 05:32:33;;;;;;;17.00;12.00;;;;;;;17.53;66.68;99116.79;129883;1264;115269;-62
2023/04/24 05:35:36;;;;;;;16.20;11.20;;;;;;;17.57;66.07;99116.73;129589;1261;114825;-62
2023/04/24 05:38:38;;;;;;;18.20;12.60;;;;;;;17.57;65.28;99121.13;129376;1264;115414;-62
2023/04/24 05:41:40;;;;;;;18.30;13.70;;;;;;;17.51;64.50;99123.92;129400;1264;114830;-61
2023/04/24 05:44:42;;;;;;;16.30;11.30;;;;;;;17.44;64.46;99123.30;129476;1258;114707;-61
2023/04/24 05:47:45;;;;;;;17.70;11.80;;;;;;;17.43;64.19;99125.92;129592;1264;114666;-61
2023/04/24 05:50:47;;;;;;;17.80;11.40;;;;;;;17.40;64.14;99125.75;129520;1280;114770;-61
2023/04/24 05:53:50;;;;;;;19.40;11.70;;;;;;;17.39;63.59;99127.33;129371;1261;115288;-61
2023/04/24 05:56:54;;;;;;;13.30;10.90;;;;;;;17.30;62.87;99126.05;129428;1261;114882;-61
2023/04/24 05:59:56;;;;;;;18.30;11.30;;;;;;;17.25;63.15;99128.88;129490;1261;115148;-62
2023/04/24 06:03:00;;;;;;;16.10;11.10;;;;;;;17.25;63.01;99129.81;129489;1258;114735;-62
2023/04/24 06:06:03;;;;;;;15.50;10.10;;;;;;;17.26;62.76;99129.27;129406;1263;115198;-62
2023/04/24 06:09:05;;;;;;;15.40;9.70;;;;;;;17.28;62.52;99134.96;129466;1274;114708;-61
2023/04/24 06:12:08;;;;;;;16.20;10.10;;;;;;;17.33;62.64;99137.84;129435;1272;114797;-61
2023/04/24 06:15:10;;;;;;;12.20;9.00;;;;;;;17.42;62.59;99140.06;129176;1261;114769;-61
2023/04/24 06:18:12;;;;;;;12.50;9.20;;;;;;;17.52;62.19;99135.17;129406;1261;114766;-62
2023/04/24 06:21:16;;;;;;;14.00;9.20;;;;;;;17.65;62.03;99135.37;129465;1280;114748;-62
2023/04/24 06:24:19;;;;;;;10.30;7.60;;;;;;;17.82;61.51;99131.90;129335;1261;114780;-62
2023/04/24 06:27:21;;;;;;;11.50;6.90;;;;;;;18.04;61.16;99133.02;129453;1264;115082;-62
2023/04/24 06:30:24;;;;;;;8.60;6.80;;;;;;;18.27;61.17;99130.54;129536;1277;114829;-62
2023/04/24 06:33:26;;;;;;;18.70;7.40;;;;;;;18.41;60.42;99133.04;129178;1265;114797;-62
2023/04/24 06:36:28;;;;;;;19.20;7.90;;;;;;;18.47;60.17;99134.28;129576;1280;114731;-61
2023/04/24 06:39:31;;;;;;;14.00;7.50;;;;;;;18.43;59.69;99137.23;129408;1264;114788;-62
2023/04/24 06:42:34;;;;;;;11.50;6.30;;;;;;;18.36;59.66;99135.52;129424;1264;114857;-62
2023/04/24 06:45:39;;;;;;;8.00;6.70;;;;;;;18.23;59.23;99140.42;129179;1266;126872;-62
2023/04/24 06:48:41;;;;;;;9.50;6.90;;;;;;;18.09;58.98;99144.76;129616;1280;115324;-61
2023/04/24 06:51:43;;;;;;;15.00;7.30;;;;;;;17.95;58.85;99144.63;129487;1261;114776;-62
2023/04/24 06:54:46;;;;;;;11.70;7.40;;;;;;;17.80;58.70;99141.84;129430;1280;114880;-62
2023/04/24 06:57:48;;;;;;;13.50;7.60;;;;;;;17.69;58.81;99143.95;129571;1261;114806;-61
2023/04/24 07:00:51;;;;;;;12.10;8.60;;;;;;;17.59;58.83;99142.02;129473;1261;114804;-61
2023/04/24 07:03:55;;;;;;;13.60;8.40;;;;;;;17.54;59.05;99145.94;129397;1259;128736;-62
2023/04/24 07:06:57;;;;;;;12.60;10.80;;;;;;;17.54;59.30;99138.90;129325;1264;115196;-61
2023/04/24 07:10:00;;;;;;;32.00;23.60;;;;;;;17.58;59.51;99143.02;129432;1264;114718;-61
2023/04/24 07:13:02;;;;;;;36.30;26.20;;;;;;;17.58;59.17;99147.71;129509;1261;114853;-61
2023/04/24 07:16:05;;;;;;;23.00;17.90;;;;;;;17.57;59.14;99147.99;129441;1261;115143;-62
2023/04/24 07:19:07;;;;;;;26.90;20.30;;;;;;;17.63;59.26;99142.52;129483;1261;115357;-62
2023/04/24 07:22:11;;;;;;;15.60;12.60;;;;;;;17.72;59.06;99144.87;129399;1281;114858;-61
2023/04/24 07:25:14;;;;;;;16.60;14.30;;;;;;;17.80;59.20;99142.86;129405;1258;114778;-67
2023/04/24 07:28:17;;;;;;;32.60;21.10;;;;;;;17.91;59.27;99144.17;129415;1261;114711;-66
2023/04/24 07:31:20;;;;;;;50.60;37.60;;;;;;;18.03;58.92;99143.02;129436;1272;114789;-66
2023/04/24 07:34:23;;;;;;;24.40;16.90;;;;;;;18.18;58.87;99141.67;129462;1281;114755;-67
2023/04/24 07:37:25;;;;;;;13.60;11.30;;;;;;;18.38;58.68;99139.17;129476;1264;115457;-67
2023/04/24 07:40:27;;;;;;;13.00;10.00;;;;;;;18.57;58.64;99143.80;129313;1264;129278;-64
2023/04/24 07:43:30;;;;;;;10.60;8.20;;;;;;;18.81;58.46;99142.31;129368;1264;114931;-67
2023/04/24 07:46:33;;;;;;;13.50;8.70;;;;;;;19.01;58.25;99144.52;129369;1280;115343;-66
2023/04/24 07:49:36;;;;;;;9.30;6.40;;;;;;;19.24;58.07;99143.45;129407;1261;114769;-68
2023/04/24 07:52:38;;;;;;;10.30;7.00;;;;;;;19.57;57.80;99143.84;129461;1257;114879;-67
2023/04/24 07:55:42;;;;;;;7.60;5.40;;;;;;;19.86;57.44;99142.88;129508;1257;114769;-67
2023/04/24 07:58:44;;;;;;;8.60;6.00;;;;;;;20.13;56.98;99139.89;129360;1264;127864;-66
2023/04/24 08:01:46;;;;;;;8.50;6.20;;;;;;;20.25;56.69;99142.21;129410;1261;115180;-64
2023/04/24 08:04:49;;;;;;;10.70;6.60;;;;;;;20.28;56.22;99142.91;129475;1261;114765;-67
2023/04/24 08:07:52;;;;;;;10.70;6.10;;;;;;;20.27;55.87;99148.73;129489;1257;114809;-63
2023/04/24 08:10:54;;;;;;;9.40;6.90;;;;;;;20.15;55.61;99147.08;129918;1258;116306;-63
2023/04/24 08:13:57;;;;;;;11.20;6.70;;;;;;;20.08;55.59;99145.51;129465;1280;115326;-67
2023/04/24 08:17:00;;;;;;;11.10;8.10;;;;;;;20.09;55.83;99144.85;129369;1262;114814;-67
2023/04/24 08:20:05;;;;;;;12.90;9.50;;;;;;;20.10;55.63;99150.67;129380;1270;114809;-67
2023/04/24 08:23:07;;;;;;;8.40;7.40;;;;;;;20.07;55.45;99150.73;129460;1261;114751;-67
2023/04/24 08:26:10;;;;;;;9.70;7.60;;;;;;;19.94;55.10;99150.41;129459;1261;115166;-67
2023/04/24 08:29:13;;;;;;;30.80;20.20;;;;;;;19.76;55.36;99157.05;129439;1264;114796;-67
2023/04/24 08:32:17;;;;;;;19.70;11.30;;;;;;;19.61;55.70;99159.55;129474;1273;114749;-67
2023/04/24 08:35:19;;;;;;;13.10;8.20;;;;;;;19.45;55.89;99164.12;129434;1280;114856;-67
2023/04/24 08:38:22;;;;;;;9.90;7.60;;;;;;;19.26;55.74;99162.33;129486;1274;114978;-67
2023/04/24 08:41:26;;;;;;;15.10;9.00;;;;;;;19.09;56.32;99161.51;129437;1261;114788;-67
2023/04/24 08:44:28;;;;;;;12.00;8.40;;;;;;;18.94;57.10;99147.10;129200;1267;114771;-62
2023/04/24 08:47:31;;;;;;;11.70;7.60;;;;;;;18.88;58.28;99150.05;129326;1261;114738;-64
2023/04/24 08:50:34;;;;;;;14.10;8.30;;;;;;;18.98;59.51;99160.64;129443;1258;114707;-62
2023/04/24 08:53:37;;;;;;;11.00;8.20;;;;;;;19.19;59.81;99153.91;129513;1261;114825;-61
2023/04/24 08:56:40;;;;;;;9.30;7.50;;;;;;;19.51;59.90;99154.60;129562;1261;114791;-66
2023/04/24 08:59:43;;;;;;;8.20;7.20;;;;;;;19.91;59.76;99148.80;129471;1258;115441;-61
2023/04/24 09:02:47;;;;;;;8.00;6.90;;;;;;;20.19;59.43;99148.96;129495;1257;114701;-62
2023/04/24 09:05:50;;;;;;;13.00;7.80;;;;;;;20.55;59.43;99154.84;129357;1261;114712;-63
2023/04/24 09:08:53;;;;;;;11.70;6.90;;;;;;;20.83;58.33;99154.81;129369;1271;114778;-63
2023/04/24 09:11:57;;;;;;;12.70;8.00;;;;;;;20.95;58.06;99152.55;129484;1261;114794;-62
2023/04/24 09:15:00;;;;;;;8.60;7.30;;;;;;;21.07;57.78;99151.59;129487;1261;115153;-66
2023/04/24 09:18:05;;;;;;;11.40;7.20;;;;;;;21.24;57.10;99149.30;129608;1261;114731;-67
2023/04/24 09:21:09;;;;;;;7.90;7.00;;;;;;;21.44;56.80;99149.82;129277;1264;127634;-68
2023/04/24 09:24:20;;;;;;;19.10;14.70;;;;;;;21.71;56.42;99150.40;129566;1264;114810;-68
2023/04/24 09:27:23;;;;;;;13.00;11.60;;;;;;;21.86;56.09;99146.52;129434;1263;114878;-67
2023/04/24 09:30:26;;;;;;;10.20;7.70;;;;;;;21.99;55.35;99144.81;129469;1258;114869;-69
2023/04/24 09:33:29;;;;;;;14.40;8.60;;;;;;;22.01;55.20;99140.23;129437;1259;114685;-69
2023/04/24 09:36:33;;;;;;;10.10;8.10;;;;;;;22.01;55.23;99138.76;129429;1258;114730;-66
2023/04/24 09:39:35;;;;;;;10.80;7.80;;;;;;;22.09;55.09;99142.02;129280;1274;114730;-60
2023/04/24 09:42:38;;;;;;;8.30;7.40;;;;;;;22.11;54.68;99139.41;129354;1257;114914;-68
2023/04/24 09:45:41;;;;;;;17.90;15.30;;;;;;;22.13;54.54;99135.01;129823;1258;114742;-63
2023/04/24 09:48:43;;;;;;;11.90;10.40;;;;;;;22.33;54.77;99133.63;129966;1280;114723;-64
2023/04/24 09:51:45;;;;;;;11.90;9.80;;;;;;;22.42;53.77;99131.93;129512;1264;115181;-66
2023/04/24 09:54:53;;;;;;;24.90;15.60;;;;;;;22.41;53.49;99127.16;129511;1274;114708;-62
2023/04/24 09:57:58;;;;;;;11.00;7.90;;;;;;;22.35;53.07;99129.40;129464;1265;114721;-62
2023/04/24 10:00:59;;;;;;;9.30;6.80;;;;;;;22.28;53.20;99122.91;129600;1261;114675;-62
2023/04/24 10:04:02;;;;;;;13.50;9.80;;;;;;;22.27;53.32;99116.13;129867;1257;114737;-64
2023/04/24 10:07:06;;;;;;;10.80;6.70;;;;;;;22.34;53.15;99110.05;129676;1280;114797;-63
2023/04/24 10:10:09;;;;;;;10.00;6.50;;;;;;;22.28;52.11;99107.02;129769;1273;115089;-63
2023/04/24 10:13:13;;;;;;;17.20;11.80;;;;;;;22.26;52.52;99107.84;129894;1274;114746;-63
2023/04/24 10:16:15;;;;;;;13.90;9.50;;;;;;;22.28;52.36;99112.09;129693;1261;114717;-62
2023/04/24 10:19:20;;;;;;;8.70;6.50;;;;;;;22.28;52.50;99114.14;129487;1261;114784;-62
2023/04/24 10:22:23;;;;;;;7.30;6.50;;;;;;;22.26;52.20;99111.23;129473;1270;114793;-62
2023/04/24 10:25:28;;;;;;;10.80;7.60;;;;;;;22.26;52.09;99117.13;129586;1258;114762;-61
2023/04/24 10:28:31;;;;;;;8.60;6.60;;;;;;;22.19;51.74;99117.79;129661;1274;115211;-62
2023/04/24 10:31:34;;;;;;;8.50;7.20;;;;;;;22.09;51.78;99117.82;129421;1261;114727;-65
2023/04/24 10:34:37;;;;;;;10.40;6.90;;;;;;;22.06;51.96;99119.48;129550;1261;114780;-65
2023/04/24 10:37:51;;;;;;;7.20;6.50;;;;;;;22.07;51.97;99114.11;129472;1277;114829;-62
2023/04/24 10:41:19;;;;;;;10.50;6.00;;;;;;;22.11;51.88;99110.14;129479;1280;128566;-65
2023/04/24 10:44:23;;;;;;;8.20;5.90;;;;;;;22.22;52.06;99112.07;129435;1257;114726;-65
2023/04/24 10:47:25;;;;;;;10.40;6.60;;;;;;;22.41;52.10;99120.78;129271;1265;114951;-63
2023/04/24 10:50:30;;;;;;;7.80;6.10;;;;;;;22.57;51.72;99122.98;129433;1263;114925;-67
2023/04/24 10:53:34;;;;;;;6.00;5.50;;;;;;;22.66;51.60;99118.95;129244;1280;114766;-67
2023/04/24 10:56:40;;;;;;;58.50;46.30;;;;;;;22.63;51.33;99122.47;129246;1280;128482;-68
2023/04/24 10:59:42;;;;;;;;;;;;;;;22.55;50.88;99121.00;129427;1264;114771;-66
2023/04/24 11:02:52;;;;;;;12.70;11.20;;;;;;;22.44;50.92;99122.61;129429;1261;114830;-62
2023/04/24 11:06:00;;;;;;;12.30;10.70;;;;;;;22.40;51.08;99122.89;129268;1280;116496;-66
2023/04/24 11:09:05;;;;;;;27.90;21.60;;;;;;;22.37;51.34;99124.92;129510;1257;115516;-66
2023/04/24 11:12:11;;;;;;;16.40;11.50;;;;;;;22.26;50.86;99128.20;129316;1280;129854;-67
2023/04/24 11:15:17;;;;;;;16.70;11.70;;;;;;;22.08;50.77;99126.86;129488;1277;116425;-67
2023/04/24 11:18:19;;;;;;;13.00;10.70;;;;;;;21.96;50.68;99126.09;129312;1277;114814;-64
2023/04/24 11:21:26;;;;;;;13.10;7.00;;;;;;;21.94;50.83;99124.83;129481;1280;115169;-64
2023/04/24 11:24:32;;;;;;;16.90;12.40;;;;;;;21.95;50.95;99125.40;129471;1259;114737;-64
2023/04/24 11:27:45;;;;;;;17.30;12.00;;;;;;;21.93;50.82;99128.17;129520;1271;129163;-67
2023/04/24 11:30:47;;;;;;;7.50;6.10;;;;;;;21.88;50.92;99124.24;129486;1280;114842;-62
2023/04/24 11:33:49;;;;;;;10.00;6.90;;;;;;;21.95;51.04;99127.10;129449;1278;115235;-63
2023/04/24 11:36:51;;;;;;;11.90;6.00;;;;;;;22.05;51.05;99123.53;129689;1261;116310;-63
2023/04/24 11:39:56;;;;;;;7.00;5.80;;;;;;;22.20;50.91;99122.59;129550;1258;114784;-60
2023/04/24 11:43:00;;;;;;;6.30;5.70;;;;;;;22.35;50.87;99127.88;129385;1280;114836;-61
2023/04/24 11:46:02;;;;;;;6.30;5.70;;;;;;;22.50;50.33;99120.72;129322;1280;128115;-63
2023/04/24 11:49:05;;;;;;;7.40;6.40;;;;;;;22.52;49.99;99122.84;129413;1258;114727;-67
2023/04/24 11:52:07;;;;;;;7.90;6.90;;;;;;;22.56;50.01;99120.04;129476;1261;114730;-61
2023/04/24 11:55:16;;;;;;;8.30;6.20;;;;;;;22.53;49.92;99118.55;129452;1276;114752;-62
2023/04/24 11:58:21;;;;;;;9.60;7.20;;;;;;;22.52;49.64;99115.32;129603;1280;114797;-63
2023/04/24 12:01:24;;;;;;;7.40;6.60;;;;;;;22.48;49.61;99110.79;129735;1266;114718;-62
2023/04/24 12:04:26;;;;;;;10.20;6.10;;;;;;;22.37;49.71;99112.95;129424;1280;114784;-62
2023/04/24 12:07:29;;;;;;;7.20;5.80;;;;;;;22.23;49.38;99114.01;129506;1261;114768;-67
2023/04/24 12:10:33;;;;;;;10.60;9.00;;;;;;;22.04;49.43;99114.61;129506;1261;114746;-61
2023/04/24 12:13:36;;;;;;;8.40;6.70;;;;;;;21.85;49.72;99111.65;129524;1261;114778;-61
2023/04/24 12:16:38;;;;;;;10.20;6.90;;;;;;;21.62;49.47;99112.64;129420;1261;115334;-61
2023/04/24 12:19:46;;;;;;;10.10;7.00;;;;;;;21.38;49.31;99110.97;129495;1279;114826;-62
2023/04/24 12:22:59;;;;;;;9.20;7.10;;;;;;;21.14;49.49;99110.64;129418;1280;128797;-62
2023/04/24 12:26:04;;;;;;;8.70;6.20;;;;;;;20.90;49.62;99108.80;129298;1258;114924;-62
2023/04/24 12:29:07;;;;;;;8.90;6.80;;;;;;;20.63;49.57;99107.39;129402;1265;114875;-61
2023/04/24 12:32:16;;;;;;;8.50;7.60;;;;;;;20.40;50.03;99107.80;129358;1280;114794;-62
2023/04/24 12:35:24;;;;;;;11.20;9.70;;;;;;;20.27;50.67;99114.27;129247;1277;116352;-62
2023/04/24 12:38:29;;;;;;;10.60;7.00;;;;;;;20.13;50.59;99108.66;129369;1280;127900;-61
2023/04/24 12:41:31;;;;;;;9.90;6.20;;;;;;;19.96;50.91;99107.69;129335;1264;115179;-61
2023/04/24 12:44:35;;;;;;;9.70;7.00;;;;;;;19.82;51.18;99099.67;129555;1277;114822;-61
2023/04/24 12:47:38;;;;;;;10.00;8.00;;;;;;;19.71;51.54;99099.34;129528;1261;114730;-62
2023/04/24 12:50:40;;;;;;;10.70;7.40;;;;;;;19.65;51.91;99100.92;129493;1280;115324;-63
2023/04/24 12:53:43;;;;;;;7.30;6.00;;;;;;;19.57;51.63;99099.95;129472;1280;114829;-62
2023/04/24 12:56:45;;;;;;;11.00;6.30;;;;;;;19.48;51.67;99096.61;129514;1277;114797;-61
2023/04/24 12:59:47;;;;;;;6.80;5.50;;;;;;;19.38;51.89;99096.36;129265;1259;115237;-61
2023/04/24 13:02:51;;;;;;;6.50;4.40;;;;;;;19.27;51.81;99097.87;129549;1277;114720;-61
2023/04/24 13:05:53;;;;;;;6.10;4.90;;;;;;;19.14;51.88;99094.68;129486;1261;114727;-62
2023/04/24 13:08:58;;;;;;;7.70;5.90;;;;;;;19.00;52.14;99091.45;129515;1261;114781;-62
2023/04/24 13:12:05;;;;;;;6.40;5.40;;;;;;;18.85;52.52;99088.48;129379;1280;128484;-62
2023/04/24 13:15:21;;;;;;;8.90;7.20;;;;;;;18.68;53.20;99095.28;129362;1280;115277;-61
2023/04/24 13:18:23;;;;;;;14.10;7.40;;;;;;;18.48;54.35;99095.71;129474;1257;115108;-62
2023/04/24 13:21:26;;;;;;;9.70;6.90;;;;;;;18.27;55.27;99094.17;129287;1261;298560;-63
2023/04/24 13:24:29;;;;;;;8.70;6.60;;;;;;;18.05;56.03;99092.59;129469;1280;114978;-61
2023/04/24 13:27:32;;;;;;;5.50;3.90;;;;;;;17.85;56.39;99093.98;129437;1258;114782;-62
2023/04/24 13:30:34;;;;;;;6.40;3.90;;;;;;;17.65;56.37;99095.96;129592;1280;115330;-62
2023/04/24 13:33:37;;;;;;;4.60;3.40;;;;;;;17.44;56.62;99093.66;129489;1280;116490;-61
2023/04/24 13:36:39;;;;;;;10.50;3.60;;;;;;;17.23;57.08;99098.02;129460;1261;115080;-61
2023/04/24 13:39:41;;;;;;;5.50;2.60;;;;;;;17.03;57.28;99100.16;129508;1259;114776;-62
2023/04/24 13:42:44;;;;;;;4.30;2.10;;;;;;;16.82;57.33;99097.95;129563;1261;114733;-61
2023/04/24 13:45:46;;;;;;;4.80;3.30;;;;;;;16.62;57.40;99094.45;129579;1261;114892;-61
2023/04/24 13:48:48;;;;;;;10.70;6.70;;;;;;;16.44;57.86;99096.06;129605;1262;114789;-61